createdAt,value
2018-04-07T00:03:12.891Z,57.88
2018-04-07T00:06:36.304Z,58.38
2018-04-07T00:09:59.670Z,58.46
2018-04-07T00:13:23.038Z,58.82
2018-04-07T00:16:47.160Z,60.36
2018-04-07T00:20:10.448Z,61.02
2018-04-07T00:23:33.726Z,61.75
2018-04-07T00:26:57.078Z,60.77
2018-04-07T00:30:20.369Z,61.01
2018-04-07T00:33:43.666Z,60.21
2018-04-07T00:37:07.014Z,62.57
2018-04-07T00:40:30.364Z,63.13
2018-04-07T00:43:53.766Z,63.68
2018-04-07T00:47:18.304Z,62.95
2018-04-07T00:50:42.418Z,64.24
2018-04-07T00:54:05.716Z,63.35
2018-04-07T00:57:29.059Z,63.54
2018-04-07T01:00:52.390Z,63.22
2018-04-07T01:04:15.674Z,63.85
2018-04-07T01:07:38.994Z,63.99
2018-04-07T01:11:02.331Z,63.87
2018-04-07T01:14:25.609Z,64.55
2018-04-07T01:17:48.969Z,64.28
2018-04-07T01:21:12.270Z,63.87
2018-04-07T01:24:35.612Z,63.86
2018-04-07T01:27:58.895Z,62.98
2018-04-07T01:31:22.984Z,64.29
2018-04-07T01:34:46.276Z,63.72
2018-04-07T01:38:09.562Z,63.93
2018-04-07T01:41:32.902Z,64.21
2018-04-07T01:44:56.207Z,65.60
2018-04-07T01:48:19.540Z,66.29
2018-04-07T01:51:42.834Z,64.95
2018-04-07T01:55:06.127Z,64.92
2018-04-07T01:58:29.392Z,65.45
2018-04-07T02:01:52.703Z,65.51
2018-04-07T02:05:16.050Z,66.12
2018-04-07T02:08:39.477Z,65.52
2018-04-07T02:12:02.757Z,66.20
2018-04-07T02:15:26.086Z,65.72
2018-04-07T02:18:50.128Z,65.55
2018-04-07T02:22:13.434Z,65.77
2018-04-07T02:25:36.764Z,65.49
2018-04-07T02:29:00.094Z,65.49
2018-04-07T02:32:24.220Z,67.68
2018-04-07T02:35:47.597Z,65.32
2018-04-07T02:39:10.943Z,65.52
2018-04-07T02:42:34.283Z,64.67
2018-04-07T02:45:57.574Z,65.33
2018-04-07T02:49:20.944Z,65.35
2018-04-07T02:52:44.287Z,66.06
2018-04-07T02:56:07.660Z,66.77
2018-04-07T02:59:31.016Z,65.67
2018-04-07T03:02:54.350Z,66.33
2018-04-07T03:06:17.632Z,66.50
2018-04-07T03:09:40.968Z,67.69
2018-04-07T03:13:05.065Z,68.02
2018-04-07T03:16:28.348Z,67.67
2018-04-07T03:19:51.645Z,68.28
2018-04-07T03:23:14.936Z,67.79
2018-04-07T03:26:38.320Z,68.62
2018-04-07T03:30:02.371Z,70.16
2018-04-07T03:33:25.728Z,69.41
2018-04-07T03:36:49.162Z,69.11
2018-04-07T03:40:12.470Z,68.76
2018-04-07T03:43:35.803Z,68.32
2018-04-07T03:46:59.234Z,68.53
2018-04-07T03:50:22.658Z,68.79
2018-04-07T03:53:45.944Z,69.27
2018-04-07T03:57:09.225Z,69.76
2018-04-07T04:00:32.582Z,70.07
2018-04-07T04:03:55.902Z,70.36
2018-04-07T04:07:19.974Z,70.01
2018-04-07T04:10:43.332Z,70.06
2018-04-07T04:14:06.672Z,70.77
2018-04-07T04:17:30.022Z,71.00
2018-04-07T04:20:53.320Z,70.38
2018-04-07T04:24:16.654Z,70.43
2018-04-07T04:27:39.953Z,70.11
2018-04-07T04:31:03.296Z,71.28
2018-04-07T04:34:26.569Z,70.46
2018-04-07T04:37:49.864Z,70.85
2018-04-07T04:41:13.190Z,71.44
2018-04-07T04:44:37.230Z,71.55
2018-04-07T04:48:00.523Z,72.00
2018-04-07T04:51:23.834Z,71.99
2018-04-07T04:54:47.182Z,72.23
2018-04-07T04:58:10.494Z,71.89
2018-04-07T05:01:34.786Z,72.31
2018-04-07T05:04:58.846Z,73.18
2018-04-07T05:08:22.201Z,73.12
2018-04-07T05:11:45.468Z,72.89
2018-04-07T05:15:08.740Z,72.66
2018-04-07T05:18:32.042Z,72.64
2018-04-07T05:21:55.334Z,72.23
2018-04-07T05:25:18.686Z,72.00
2018-04-07T05:28:41.974Z,72.36
2018-04-07T05:32:06.292Z,71.49
2018-04-07T05:35:29.637Z,71.22
2018-04-07T05:38:52.927Z,71.37
2018-04-07T05:42:16.270Z,71.61
2018-04-07T05:45:39.573Z,71.65
2018-04-07T05:49:02.916Z,71.15
2018-04-07T05:52:26.272Z,71.32
2018-04-07T05:55:49.577Z,70.10
2018-04-07T05:59:12.939Z,70.34
2018-04-07T06:02:37.064Z,70.87
2018-04-07T06:06:00.360Z,70.91
2018-04-07T06:09:23.697Z,70.78
2018-04-07T06:12:47.799Z,70.14
2018-04-07T06:16:11.064Z,70.12
2018-04-07T06:19:34.376Z,69.24
2018-04-07T06:22:57.742Z,69.51
2018-04-07T06:34:15.672Z,68.58
2018-04-07T06:37:39.715Z,67.17
2018-04-07T06:41:03.025Z,66.92
2018-04-07T06:44:27.067Z,66.36
2018-04-07T06:47:50.363Z,66.18
2018-04-07T06:51:13.662Z,65.76
2018-04-07T06:54:37.020Z,65.64
2018-04-07T06:58:00.368Z,65.13
2018-04-07T07:01:23.753Z,65.24
2018-04-07T07:04:47.879Z,64.54
2018-04-07T07:08:12.186Z,64.16
2018-04-07T07:11:35.546Z,63.18
2018-04-07T07:14:58.908Z,63.87
2018-04-07T07:18:22.329Z,63.10
2018-04-07T07:21:45.625Z,62.50
2018-04-07T07:25:10.283Z,62.50
2018-04-07T07:28:33.628Z,60.72
2018-04-07T07:31:56.951Z,60.94
2018-04-07T07:35:21.140Z,60.44
2018-04-07T07:38:44.498Z,59.80
2018-04-07T07:42:07.876Z,59.57
2018-04-07T07:45:31.225Z,59.20
2018-04-07T07:48:54.573Z,59.33
2018-04-07T07:52:17.939Z,57.89
2018-04-07T07:55:41.331Z,59.00
2018-04-07T07:59:05.486Z,58.60
2018-04-07T08:02:28.849Z,58.63
2018-04-07T08:05:52.173Z,57.82
2018-04-07T08:09:15.526Z,56.46
2018-04-07T08:12:38.999Z,56.24
2018-04-07T08:16:02.418Z,55.89
2018-04-07T08:19:26.532Z,55.42
2018-04-07T08:22:49.811Z,54.64
2018-04-07T08:26:13.348Z,53.94
2018-04-07T08:29:36.618Z,52.96
2018-04-07T08:32:59.989Z,52.92
2018-04-07T08:36:24.127Z,52.49
2018-04-07T08:39:47.680Z,52.77
2018-04-07T08:43:11.105Z,52.60
2018-04-07T08:46:34.474Z,51.52
2018-04-07T08:49:57.374Z,50.87
2018-04-07T08:53:20.988Z,51.08
2018-04-07T08:56:43.867Z,51.09
2018-04-07T09:00:06.782Z,51.59
2018-04-07T09:03:31.570Z,50.04
2018-04-07T09:06:54.503Z,50.02
2018-04-07T09:10:18.133Z,49.85
2018-04-07T09:13:41.337Z,49.91
2018-04-07T09:17:04.249Z,49.32
2018-04-07T09:20:27.190Z,48.72
2018-04-07T09:23:50.105Z,47.71
2018-04-07T09:27:12.956Z,45.84
2018-04-07T09:30:35.806Z,46.87
2018-04-07T09:33:58.623Z,46.03
2018-04-07T09:37:21.550Z,44.55
2018-04-07T09:40:44.741Z,44.99
2018-04-07T09:44:08.369Z,44.48
2018-04-07T09:47:32.322Z,43.46
2018-04-07T09:50:56.005Z,42.96
2018-04-07T09:54:18.857Z,42.45
2018-04-07T09:57:41.741Z,41.94
2018-04-07T10:01:05.681Z,41.16
2018-04-07T10:04:29.334Z,40.82
2018-04-07T10:07:52.206Z,40.16
2018-04-07T10:11:15.070Z,38.10
2018-04-07T10:14:37.939Z,37.34
2018-04-07T10:18:01.549Z,37.05
2018-04-07T10:21:24.430Z,36.85
2018-04-07T10:24:47.406Z,36.93
2018-04-07T10:28:10.465Z,36.03
2018-04-07T10:31:33.450Z,36.00
2018-04-07T10:34:56.315Z,35.18
2018-04-07T10:38:19.224Z,35.34
2018-04-07T10:41:42.142Z,34.92
2018-04-07T10:45:05.019Z,34.70
2018-04-07T10:48:27.894Z,34.33
2018-04-07T10:51:50.834Z,34.51
2018-04-07T10:55:13.810Z,34.82
2018-04-07T10:58:36.792Z,34.02
2018-04-07T11:02:00.412Z,33.49
2018-04-07T11:05:23.461Z,33.77
2018-04-07T11:08:46.328Z,33.33
2018-04-07T11:12:09.235Z,33.48
2018-04-07T11:15:32.098Z,32.45
2018-04-07T11:18:55.007Z,32.49
2018-04-07T11:22:17.954Z,32.11
2018-04-07T11:25:41.692Z,31.80
2018-04-07T11:29:04.600Z,31.74
2018-04-07T11:32:28.222Z,31.39
2018-04-07T11:35:51.199Z,31.55
2018-04-07T11:39:14.060Z,30.95
2018-04-07T11:42:36.918Z,30.68
2018-04-07T11:46:00.557Z,29.80
2018-04-07T11:49:23.733Z,29.88
2018-04-07T11:52:47.394Z,29.58
2018-04-07T11:56:10.274Z,29.75
2018-04-07T11:59:33.187Z,28.87
2018-04-07T12:02:56.831Z,29.16
2018-04-07T12:06:19.695Z,28.07
2018-04-07T12:09:43.353Z,28.09
2018-04-07T12:13:07.002Z,28.26
2018-04-07T12:16:30.811Z,28.06
2018-04-07T12:19:53.672Z,27.98
2018-04-07T12:23:16.533Z,27.62
2018-04-07T12:26:39.357Z,27.45
2018-04-07T12:30:02.242Z,27.84
2018-04-07T12:33:25.176Z,27.70
2018-04-07T12:36:48.821Z,26.80
2018-04-07T12:40:12.438Z,27.24
2018-04-07T12:43:35.329Z,26.74
2018-04-07T12:46:58.967Z,26.57
2018-04-07T12:50:22.609Z,27.21
2018-04-07T12:53:45.576Z,27.02
2018-04-07T12:57:08.432Z,26.46
2018-04-07T13:00:31.274Z,26.32
2018-04-07T13:03:54.134Z,25.81
2018-04-07T13:07:16.961Z,25.74
2018-04-07T13:10:39.816Z,25.64
2018-04-07T13:14:02.804Z,25.52
2018-04-07T13:17:25.767Z,24.78
2018-04-07T13:20:49.386Z,25.51
2018-04-07T13:24:13.071Z,25.22
2018-04-07T13:27:36.699Z,25.47
2018-04-07T13:30:59.593Z,25.04
2018-04-07T13:34:22.463Z,25.00
2018-04-07T13:37:45.359Z,24.84
2018-04-07T13:41:08.231Z,24.07
2018-04-07T13:44:31.069Z,25.20
2018-04-07T13:47:53.917Z,24.59
2018-04-07T13:51:16.788Z,24.64
2018-04-07T13:54:40.409Z,24.34
2018-04-07T13:58:03.232Z,23.99
2018-04-07T14:01:26.111Z,24.71
2018-04-07T14:04:48.940Z,23.94
2018-04-07T14:08:11.896Z,25.06
2018-04-07T14:11:34.851Z,24.91
2018-04-07T14:14:57.695Z,24.75
2018-04-07T14:18:20.538Z,24.75
2018-04-07T14:21:43.423Z,24.67
2018-04-07T14:25:06.255Z,24.38
2018-04-07T14:28:29.101Z,24.28
2018-04-07T14:31:52.020Z,24.12
2018-04-07T14:35:14.872Z,24.28
2018-04-07T14:38:37.716Z,24.48
2018-04-07T14:42:00.579Z,24.48
2018-04-07T14:45:23.430Z,24.74
2018-04-07T14:48:46.266Z,24.76
2018-04-07T14:52:09.101Z,24.82
2018-04-07T14:55:32.049Z,24.66
2018-04-07T14:58:54.887Z,24.84
2018-04-07T15:02:17.741Z,24.77
2018-04-07T15:05:40.607Z,24.87
2018-04-07T15:09:04.211Z,24.99
2018-04-07T15:12:27.149Z,24.84
2018-04-07T15:15:50.098Z,24.18
2018-04-07T15:19:13.732Z,24.06
2018-04-07T15:22:37.374Z,25.58
2018-04-07T15:26:00.283Z,25.29
2018-04-07T15:29:23.134Z,26.76
2018-04-07T15:32:45.986Z,26.86
2018-04-07T15:36:08.913Z,26.93
2018-04-07T15:39:31.825Z,27.66
2018-04-07T15:42:54.665Z,26.90
2018-04-07T15:46:17.513Z,27.50
2018-04-07T15:49:40.386Z,27.76
2018-04-07T15:53:03.296Z,28.26
2018-04-07T15:56:26.129Z,28.45
2018-04-07T15:59:49.082Z,28.90
2018-04-07T16:03:12.714Z,29.38
2018-04-07T16:06:35.688Z,28.80
2018-04-07T16:09:58.608Z,29.29
2018-04-07T16:13:21.571Z,29.40
2018-04-07T16:16:45.198Z,28.57
2018-04-07T16:20:08.097Z,28.36
2018-04-07T16:23:31.167Z,28.57
2018-04-07T16:26:54.029Z,27.33
2018-04-07T16:30:16.865Z,27.61
2018-04-07T16:33:39.709Z,26.97
2018-04-07T16:37:02.565Z,27.21
2018-04-07T16:40:25.551Z,27.04
2018-04-07T16:43:48.378Z,27.13
2018-04-07T16:47:11.390Z,27.54
2018-04-07T16:50:34.243Z,27.50
2018-04-07T16:53:57.133Z,28.02
2018-04-07T16:57:20.762Z,27.47
2018-04-07T17:00:43.725Z,27.77
2018-04-07T17:04:06.621Z,28.30
2018-04-07T17:07:30.238Z,29.00
2018-04-07T17:10:53.091Z,29.37
2018-04-07T17:14:16.142Z,29.60
2018-04-07T17:17:39.025Z,29.87
2018-04-07T17:21:02.655Z,29.79
2018-04-07T17:24:25.549Z,29.89
2018-04-07T17:27:48.461Z,30.56
2018-04-07T17:31:11.338Z,31.27
2018-04-07T17:34:34.201Z,31.24
2018-04-07T17:37:57.919Z,32.33
2018-04-07T17:41:20.876Z,35.30
2018-04-07T17:44:43.787Z,36.97
2018-04-07T17:48:07.386Z,38.62
2018-04-07T17:51:30.242Z,39.87
2018-04-07T17:54:53.120Z,40.88
2018-04-07T17:58:16.751Z,41.93
2018-04-07T18:01:39.745Z,42.43
2018-04-07T18:05:03.363Z,43.09
2018-04-07T18:08:26.380Z,43.84
2018-04-07T18:11:49.841Z,44.78
2018-04-07T18:15:13.489Z,45.12
2018-04-07T18:18:36.393Z,45.54
2018-04-07T18:22:00.151Z,45.80
2018-04-07T18:25:23.049Z,46.04
2018-04-07T18:28:46.735Z,45.87
2018-04-07T18:32:09.725Z,46.33
2018-04-07T18:35:33.132Z,46.94
2018-04-07T18:38:57.003Z,47.58
2018-04-07T18:42:20.535Z,46.42
2018-04-07T18:45:45.031Z,46.76
2018-04-07T18:49:08.667Z,47.34
2018-04-07T18:52:32.149Z,47.83
2018-04-07T18:55:56.642Z,48.11
2018-04-07T18:59:20.015Z,48.39
2018-04-07T19:02:43.355Z,47.99
2018-04-07T19:06:07.475Z,48.07
2018-04-07T19:09:31.601Z,46.85
2018-04-07T19:12:54.956Z,47.10
2018-04-07T19:16:18.309Z,47.27
2018-04-07T19:19:41.666Z,47.47
2018-04-07T19:23:05.029Z,47.71
2018-04-07T19:26:28.377Z,47.18
2018-04-07T19:29:51.882Z,47.98
2018-04-07T19:33:15.223Z,49.13
2018-04-07T19:36:38.520Z,48.96
2018-04-07T19:40:01.983Z,49.65
2018-04-07T19:43:26.184Z,49.75
2018-04-07T19:46:49.639Z,50.38
2018-04-07T19:50:13.766Z,50.96
2018-04-07T19:53:37.116Z,51.17
2018-04-07T19:57:00.588Z,52.08
2018-04-07T20:00:24.754Z,51.83
2018-04-07T20:03:48.868Z,51.86
2018-04-07T20:07:12.297Z,51.40
2018-04-07T20:10:35.574Z,51.72
2018-04-07T20:13:58.859Z,52.53
2018-04-07T20:17:22.217Z,53.02
2018-04-07T20:20:45.499Z,52.82
2018-04-07T20:24:08.815Z,53.45
2018-04-07T20:27:32.157Z,54.15
2018-04-07T20:30:55.492Z,54.22
2018-04-07T20:34:18.798Z,54.29
2018-04-07T20:37:42.202Z,54.59
2018-04-07T20:41:06.311Z,55.04
2018-04-07T20:44:34.797Z,56.16
2018-04-07T20:47:58.926Z,56.33
2018-04-07T20:51:22.261Z,56.67
2018-04-07T20:54:45.590Z,56.90
2018-04-07T20:58:09.631Z,57.26
2018-04-07T21:01:41.779Z,57.38
2018-04-07T21:05:05.068Z,56.45
2018-04-07T21:08:28.368Z,56.86
2018-04-07T21:11:51.712Z,56.54
2018-04-07T21:15:15.012Z,56.47
2018-04-07T21:18:39.152Z,56.61
2018-04-07T21:22:02.521Z,57.14
2018-04-07T21:25:25.872Z,56.44
2018-04-07T21:28:49.227Z,57.22
2018-04-07T21:32:12.951Z,57.73
2018-04-07T21:35:36.368Z,57.79
2018-04-07T21:39:00.468Z,58.11
2018-04-07T21:42:23.827Z,57.97
2018-04-07T21:45:47.172Z,58.32
2018-04-07T21:49:10.522Z,58.47
2018-04-07T21:52:33.795Z,58.91
2018-04-07T21:55:57.097Z,59.29
2018-04-07T21:59:20.503Z,59.24
2018-04-07T22:02:43.818Z,59.08
2018-04-07T22:06:07.188Z,58.62
2018-04-07T22:09:31.259Z,59.60
2018-04-07T22:12:54.652Z,59.49
2018-04-07T22:16:18.104Z,59.09
2018-04-07T22:19:41.405Z,59.50
2018-04-07T22:23:04.786Z,60.08
2018-04-07T22:26:28.830Z,60.53
2018-04-07T22:29:52.124Z,60.98
2018-04-07T22:33:15.487Z,61.09
2018-04-07T22:36:38.838Z,60.83
2018-04-07T22:40:02.316Z,60.88
2018-04-07T22:43:25.763Z,61.62
2018-04-07T22:46:49.044Z,62.35
2018-04-07T22:50:12.333Z,61.86
2018-04-07T22:53:35.730Z,62.40
2018-04-07T22:56:59.871Z,62.48
2018-04-07T23:00:26.052Z,62.73
2018-04-07T23:03:56.428Z,62.88
2018-04-07T23:07:19.732Z,63.26
2018-04-07T23:10:43.089Z,63.28
2018-04-07T23:14:06.376Z,63.02
2018-04-07T23:17:29.676Z,63.37
2018-04-07T23:20:53.086Z,63.59
2018-04-07T23:24:17.389Z,63.80
2018-04-07T23:35:35.524Z,63.93
2018-04-07T23:38:58.915Z,63.99
2018-04-07T23:42:22.363Z,63.70
2018-04-07T23:45:45.662Z,64.09
2018-04-07T23:49:09.021Z,63.80
2018-04-07T23:52:32.389Z,63.16
2018-04-07T23:55:55.759Z,63.18
2018-04-07T23:59:19.803Z,63.30
